createdAt,value
2019-01-29T00:00:07.407Z,96233.03
2019-01-29T00:02:40.699Z,96226.61
2019-01-29T00:05:12.348Z,96232.78
2019-01-29T00:07:45.587Z,96224.83
2019-01-29T00:10:19.052Z,96218.56
2019-01-29T00:12:50.770Z,96219.72
2019-01-29T00:15:22.532Z,96219.63
2019-01-29T00:17:57.221Z,96211.55
2019-01-29T00:20:29.492Z,96214.70
2019-01-29T00:23:00.934Z,96228.72
2019-01-29T00:25:32.637Z,96221.47
2019-01-29T00:28:05.386Z,96223.12
2019-01-29T00:30:37.526Z,96230.83
2019-01-29T00:33:09.115Z,96231.41
2019-01-29T00:35:41.790Z,96232.94
2019-01-29T00:38:13.415Z,96243.55
2019-01-29T00:40:45.156Z,96235.72
2019-01-29T00:43:16.980Z,96236.77
2019-01-29T00:45:48.573Z,96239.58
2019-01-29T00:48:20.042Z,96234.52
2019-01-29T00:50:51.616Z,96234.28
2019-01-29T00:53:23.220Z,96218.61
2019-01-29T00:55:56.751Z,96234.19
2019-01-29T00:58:30.364Z,96240.48
2019-01-29T01:01:01.950Z,96238.38
2019-01-29T01:03:35.133Z,96243.97
2019-01-29T01:06:08.474Z,96247.95
2019-01-29T01:08:40.049Z,96244.92
2019-01-29T01:11:15.104Z,96251.92
2019-01-29T01:13:48.217Z,96252.25
2019-01-29T01:16:20.697Z,96263.56
2019-01-29T01:18:52.475Z,96249.52
2019-01-29T01:21:24.001Z,96270.81
2019-01-29T01:23:55.547Z,96272.10
2019-01-29T01:26:27.886Z,96276.53
2019-01-29T01:28:59.411Z,96267.17
2019-01-29T01:31:31.037Z,96267.17
2019-01-29T01:34:14.145Z,96275.91
2019-01-29T01:36:48.766Z,96281.29
2019-01-29T01:39:24.430Z,96276.27
2019-01-29T01:41:57.424Z,96278.72
2019-01-29T01:44:30.285Z,96279.19
2019-01-29T01:47:03.327Z,96281.76
2019-01-29T01:49:37.262Z,96279.10
2019-01-29T01:52:08.951Z,96285.98
2019-01-29T01:54:40.573Z,96295.34
2019-01-29T01:57:12.051Z,96288.67
2019-01-29T01:59:43.651Z,96294.97
2019-01-29T02:02:15.465Z,96294.52
2019-01-29T02:04:47.231Z,96293.88
2019-01-29T02:07:20.449Z,96298.43
2019-01-29T02:09:52.136Z,96292.80
2019-01-29T02:12:25.554Z,96292.22
2019-01-29T02:14:57.424Z,96287.45
2019-01-29T02:17:29.915Z,96287.31
2019-01-29T02:20:02.583Z,96292.41
2019-01-29T02:22:38.847Z,96287.25
2019-01-29T02:25:12.190Z,96297.20
2019-01-29T02:27:43.776Z,96300.69
2019-01-29T02:30:17.789Z,96299.59
2019-01-29T02:32:49.307Z,96297.39
2019-01-29T02:35:22.708Z,96301.72
2019-01-29T02:37:54.941Z,96297.42
2019-01-29T02:40:30.218Z,96294.39
2019-01-29T02:43:01.747Z,96300.17
2019-01-29T02:45:33.371Z,96299.72
2019-01-29T02:48:05.112Z,96305.31
2019-01-29T02:50:43.935Z,96304.73
2019-01-29T02:53:18.288Z,96306.39
2019-01-29T02:55:48.800Z,96301.95
2019-01-29T02:58:20.470Z,96300.55
2019-01-29T03:00:56.562Z,96302.28
2019-01-29T03:03:31.030Z,96298.09
2019-01-29T03:06:02.661Z,96300.17
2019-01-29T03:08:35.371Z,96292.29
2019-01-29T03:11:07.462Z,96288.44
2019-01-29T03:13:39.962Z,96299.00
2019-01-29T03:16:13.182Z,96289.11
2019-01-29T03:18:44.854Z,96288.05
2019-01-29T03:21:16.395Z,96284.64
2019-01-29T03:23:49.017Z,96290.72
2019-01-29T03:26:20.971Z,96283.16
2019-01-29T03:28:53.963Z,96285.20
2019-01-29T03:31:25.514Z,96302.41
2019-01-29T03:33:58.225Z,96301.83
2019-01-29T03:36:29.868Z,96311.16
2019-01-29T03:39:02.074Z,96310.91
2019-01-29T03:41:35.613Z,96308.91
2019-01-29T03:44:08.579Z,96317.33
2019-01-29T03:46:41.640Z,96319.32
2019-01-29T03:49:16.843Z,96331.95
2019-01-29T03:51:48.551Z,96343.73
2019-01-29T03:54:20.801Z,96334.15
2019-01-29T03:56:53.339Z,96343.52
2019-01-29T03:59:24.986Z,96348.47
2019-01-29T04:01:58.048Z,96350.00
2019-01-29T04:04:33.809Z,96342.79
2019-01-29T04:07:06.130Z,96351.41
2019-01-29T04:09:38.309Z,96357.13
2019-01-29T04:12:10.084Z,96354.19
2019-01-29T04:14:41.562Z,96364.00
2019-01-29T04:17:14.468Z,96363.05
2019-01-29T04:19:46.928Z,96360.94
2019-01-29T04:22:18.456Z,96355.80
2019-01-29T04:24:50.017Z,96365.57
2019-01-29T04:27:23.781Z,96357.39
2019-01-29T04:29:57.450Z,96357.84
2019-01-29T04:32:30.445Z,96352.65
2019-01-29T04:35:02.037Z,96358.02
2019-01-29T04:37:33.643Z,96344.66
2019-01-29T04:40:05.834Z,96362.92
2019-01-29T04:42:37.471Z,96358.48
2019-01-29T04:45:12.290Z,96365.94
2019-01-29T04:47:46.097Z,96371.31
2019-01-29T04:50:23.060Z,96367.34
2019-01-29T04:52:56.836Z,96368.16
2019-01-29T04:55:30.506Z,96371.90
2019-01-29T04:58:02.008Z,96372.41
2019-01-29T05:00:34.679Z,96375.31
2019-01-29T05:03:06.301Z,96388.17
2019-01-29T05:05:39.644Z,96383.53
2019-01-29T05:08:11.882Z,96386.42
2019-01-29T05:10:43.413Z,96393.16
2019-01-29T05:13:15.174Z,96389.88
2019-01-29T05:15:52.477Z,96389.88
2019-01-29T05:18:25.574Z,96386.33
2019-01-29T05:20:57.541Z,96386.27
2019-01-29T05:23:29.199Z,96389.38
2019-01-29T05:26:01.724Z,96390.44
2019-01-29T05:28:35.733Z,96386.20
2019-01-29T05:31:07.741Z,96395.93
2019-01-29T05:33:41.602Z,96404.03
2019-01-29T05:36:13.884Z,96399.52
2019-01-29T05:38:45.462Z,96404.55
2019-01-29T05:41:17.187Z,96409.05
2019-01-29T05:43:49.265Z,96418.75
2019-01-29T05:46:20.797Z,96419.84
2019-01-29T05:48:52.679Z,96426.39
2019-01-29T05:51:24.563Z,96429.42
2019-01-29T05:53:58.541Z,96430.38
2019-01-29T05:56:35.167Z,96426.73
2019-01-29T05:59:07.972Z,96431.53
2019-01-29T06:01:42.621Z,96425.25
2019-01-29T06:04:14.715Z,96437.98
2019-01-29T06:06:48.015Z,96431.47
2019-01-29T06:09:19.625Z,96428.41
2019-01-29T06:11:51.214Z,96437.79
2019-01-29T06:14:23.346Z,96445.62
2019-01-29T06:16:55.251Z,96452.30
2019-01-29T06:19:27.871Z,96450.64
2019-01-29T06:21:59.561Z,96442.72
2019-01-29T06:24:31.573Z,96444.34
2019-01-29T06:27:03.819Z,96453.64
2019-01-29T06:29:35.977Z,96455.91
2019-01-29T06:32:07.639Z,96466.32
2019-01-29T06:34:42.895Z,96460.14
2019-01-29T06:37:14.780Z,96471.84
2019-01-29T06:39:46.690Z,96471.06
2019-01-29T06:42:19.514Z,96474.02
2019-01-29T06:44:52.117Z,96476.05
2019-01-29T06:47:25.165Z,96479.34
2019-01-29T06:49:56.681Z,96474.31
2019-01-29T06:52:28.242Z,96476.30
2019-01-29T06:55:01.731Z,96477.84
2019-01-29T06:57:34.357Z,96483.56
2019-01-29T07:00:10.365Z,96487.06
2019-01-29T07:02:42.278Z,96495.14
2019-01-29T07:05:16.270Z,96491.41
2019-01-29T07:07:49.223Z,96498.67
2019-01-29T07:10:21.698Z,96503.58
2019-01-29T07:12:55.426Z,96503.70
2019-01-29T07:15:45.075Z,96500.58
2019-01-29T07:18:41.320Z,96500.28
2019-01-29T07:21:13.246Z,96503.67
2019-01-29T07:23:49.851Z,96506.73
2019-01-29T07:26:21.481Z,96514.34
2019-01-29T07:28:57.746Z,96511.42
2019-01-29T07:31:29.317Z,96513.66
2019-01-29T07:34:02.220Z,96515.07
2019-01-29T07:36:38.744Z,96521.27
2019-01-29T07:39:12.603Z,96520.47
2019-01-29T07:41:44.163Z,96515.09
2019-01-29T07:44:16.727Z,96517.76
2019-01-29T07:46:48.525Z,96512.38
2019-01-29T07:49:20.759Z,96505.34
2019-01-29T07:51:53.458Z,96510.97
2019-01-29T07:54:33.268Z,96502.19
2019-01-29T07:57:03.843Z,96501.73
2019-01-29T07:59:36.500Z,96504.73
2019-01-29T08:02:08.860Z,96514.55
2019-01-29T08:04:40.420Z,96509.03
2019-01-29T08:07:12.014Z,96516.80
2019-01-29T08:09:43.611Z,96516.92
2019-01-29T08:12:16.441Z,96507.19
2019-01-29T08:14:49.164Z,96510.48
2019-01-29T08:17:21.332Z,96507.80
2019-01-29T08:20:01.356Z,96508.60
2019-01-29T08:22:33.092Z,96496.72
2019-01-29T08:25:05.143Z,96501.03
2019-01-29T08:27:36.746Z,96501.60
2019-01-29T08:30:08.334Z,96493.76
2019-01-29T08:32:40.083Z,96497.73
2019-01-29T08:35:11.827Z,96503.48
2019-01-29T08:37:43.421Z,96501.23
2019-01-29T08:40:15.755Z,96505.44
2019-01-29T08:42:47.385Z,96511.41
2019-01-29T08:45:19.361Z,96521.03
2019-01-29T08:47:54.056Z,96522.88
2019-01-29T08:50:27.411Z,96523.11
2019-01-29T08:52:59.007Z,96527.48
2019-01-29T08:55:32.877Z,96525.27
2019-01-29T08:58:05.247Z,96524.80
2019-01-29T09:00:38.001Z,96525.86
2019-01-29T09:03:09.538Z,96532.20
2019-01-29T09:05:41.488Z,96525.53
2019-01-29T09:08:15.636Z,96521.55
2019-01-29T09:10:49.054Z,96519.17
2019-01-29T09:13:20.581Z,96522.35
2019-01-29T09:15:54.390Z,96520.20
2019-01-29T09:18:25.983Z,96517.16
2019-01-29T09:21:00.398Z,96512.26
2019-01-29T09:23:32.911Z,96515.30
2019-01-29T09:26:04.804Z,96515.87
2019-01-29T09:28:36.811Z,96508.69
2019-01-29T09:31:08.677Z,96509.83
2019-01-29T09:33:42.506Z,96510.25
2019-01-29T09:36:42.504Z,96521.84
2019-01-29T09:39:17.839Z,96512.19
2019-01-29T09:41:49.396Z,96516.20
2019-01-29T09:44:20.951Z,96508.22
2019-01-29T09:46:52.444Z,96504.77
2019-01-29T09:49:26.392Z,96507.44
2019-01-29T09:51:58.249Z,96499.86
2019-01-29T09:54:29.985Z,96504.52
2019-01-29T09:57:01.928Z,96497.84
2019-01-29T09:59:35.444Z,96498.53
2019-01-29T10:02:06.869Z,96488.81
2019-01-29T10:04:46.202Z,96493.44
2019-01-29T10:07:20.234Z,96490.91
2019-01-29T10:09:54.118Z,96485.91
2019-01-29T10:12:25.692Z,96483.73
2019-01-29T10:14:57.198Z,96484.75
2019-01-29T10:17:29.357Z,96478.07
2019-01-29T10:20:03.329Z,96482.20
2019-01-29T10:22:35.275Z,96485.98
2019-01-29T10:25:10.068Z,96485.20
2019-01-29T10:27:48.021Z,96488.20
2019-01-29T10:30:24.143Z,96491.39
2019-01-29T10:32:55.919Z,96494.02
2019-01-29T10:35:30.632Z,96494.06
2019-01-29T10:38:05.660Z,96502.23
2019-01-29T10:40:58.030Z,96506.75
2019-01-29T10:43:32.406Z,96506.89
2019-01-29T10:46:05.504Z,96501.63
2019-01-29T10:48:37.041Z,96504.38
2019-01-29T10:51:08.805Z,96508.84
2019-01-29T10:53:41.901Z,96511.56
2019-01-29T10:56:15.013Z,96512.39
2019-01-29T10:58:46.591Z,96511.66
2019-01-29T11:01:20.789Z,96509.78
2019-01-29T11:03:54.024Z,96517.42
2019-01-29T11:06:25.974Z,96516.49
2019-01-29T11:08:57.937Z,96511.92
2019-01-29T11:11:30.013Z,96513.11
2019-01-29T11:14:02.695Z,96513.03
2019-01-29T11:16:35.141Z,96510.94
2019-01-29T11:19:06.948Z,96514.21
2019-01-29T11:21:38.956Z,96511.87
2019-01-29T11:24:13.000Z,96514.70
2019-01-29T11:26:47.313Z,96513.05
2019-01-29T11:29:21.178Z,96512.73
2019-01-29T11:31:53.940Z,96515.05
2019-01-29T11:34:26.778Z,96503.92
2019-01-29T11:36:58.668Z,96500.75
2019-01-29T11:39:30.697Z,96507.17
2019-01-29T11:42:02.218Z,96508.33
2019-01-29T11:44:34.603Z,96508.80
2019-01-29T11:47:06.673Z,96509.27
2019-01-29T11:49:38.344Z,96511.84
2019-01-29T11:52:12.223Z,96509.03
2019-01-29T11:54:44.210Z,96507.72
2019-01-29T11:57:17.441Z,96512.08
2019-01-29T11:59:51.321Z,96507.30
2019-01-29T12:02:28.257Z,96506.34
2019-01-29T12:04:56.507Z,96506.81
2019-01-29T12:07:28.224Z,96512.80
2019-01-29T12:10:00.567Z,96505.44
2019-01-29T12:12:34.729Z,96503.66
2019-01-29T12:15:08.200Z,96513.86
2019-01-29T12:17:43.569Z,96512.67
2019-01-29T12:20:27.357Z,96513.47
2019-01-29T12:23:01.553Z,96512.20
2019-01-29T12:25:34.797Z,96511.06
2019-01-29T12:28:30.078Z,96507.09
2019-01-29T12:31:05.204Z,96514.70
2019-01-29T12:34:17.885Z,96509.92
2019-01-29T12:37:12.372Z,96514.14
2019-01-29T12:39:44.185Z,96508.16
2019-01-29T12:42:36.081Z,96505.47
2019-01-29T12:45:10.757Z,96507.45
2019-01-29T12:50:56.773Z,96509.35
2019-01-29T12:53:37.441Z,96512.72
2019-01-29T12:56:21.280Z,96517.89
2019-01-29T12:59:00.598Z,96518.37
2019-01-29T13:01:32.141Z,96512.85
2019-01-29T13:04:03.727Z,96518.14
2019-01-29T13:06:35.205Z,96513.33
2019-01-29T13:09:10.012Z,96513.08
2019-01-29T13:11:44.031Z,96507.58
2019-01-29T13:14:15.482Z,96509.89
2019-01-29T13:16:49.329Z,96508.86
2019-01-29T13:19:20.869Z,96517.39
2019-01-29T13:21:52.508Z,96506.52
2019-01-29T13:24:25.462Z,96509.68
2019-01-29T13:26:57.570Z,96510.86
2019-01-29T13:29:30.841Z,96513.77
2019-01-29T13:32:03.975Z,96514.95
2019-01-29T13:34:35.994Z,96518.69
2019-01-29T13:37:09.170Z,96511.80
2019-01-29T13:39:42.114Z,96518.96
2019-01-29T13:42:14.414Z,96514.84
2019-01-29T13:44:45.913Z,96525.27
2019-01-29T13:47:17.577Z,96522.09
2019-01-29T13:49:49.044Z,96514.95
2019-01-29T13:52:21.225Z,96515.53
2019-01-29T13:54:52.781Z,96514.12
2019-01-29T13:57:28.173Z,96514.47
2019-01-29T14:00:00.683Z,96517.28
2019-01-29T14:02:32.674Z,96513.88
2019-01-29T14:05:04.752Z,96505.20
2019-01-29T14:07:36.443Z,96511.77
2019-01-29T14:10:12.157Z,96508.34
2019-01-29T14:12:44.082Z,96504.59
2019-01-29T14:15:24.085Z,96503.52
2019-01-29T14:17:56.459Z,96508.00
2019-01-29T14:20:30.738Z,96504.35
2019-01-29T14:23:02.283Z,96504.69
2019-01-29T14:25:35.154Z,96505.52
2019-01-29T14:28:09.527Z,96505.89
2019-01-29T14:30:41.231Z,96511.95
2019-01-29T14:33:12.907Z,96502.81
2019-01-29T14:35:45.041Z,96507.52
2019-01-29T14:39:21.429Z,96505.55
2019-01-29T14:41:53.067Z,96506.68
2019-01-29T14:44:28.563Z,96510.84
2019-01-29T14:47:02.451Z,96515.63
2019-01-29T14:49:34.010Z,96506.40
2019-01-29T14:52:05.915Z,96504.03
2019-01-29T14:54:39.195Z,96500.05
2019-01-29T14:57:10.790Z,96505.53
2019-01-29T14:59:44.859Z,96509.64
2019-01-29T15:02:18.072Z,96497.97
2019-01-29T15:04:49.624Z,96493.73
2019-01-29T15:07:29.709Z,96490.89
2019-01-29T15:09:54.800Z,96498.50
2019-01-29T15:12:26.961Z,96495.13
2019-01-29T15:14:59.480Z,96496.20
2019-01-29T15:17:42.642Z,96496.53
2019-01-29T15:20:17.052Z,96495.73
2019-01-29T15:22:49.100Z,96494.46
2019-01-29T15:25:20.651Z,96496.58
2019-01-29T15:27:57.192Z,96503.25
2019-01-29T15:30:29.073Z,96503.95
2019-01-29T15:33:00.798Z,96500.78
2019-01-29T15:35:32.550Z,96508.19
2019-01-29T15:38:04.135Z,96518.27
2019-01-29T15:40:36.122Z,96519.20
2019-01-29T15:43:07.973Z,96526.81
2019-01-29T15:45:41.333Z,96528.79
2019-01-29T15:48:13.676Z,96517.28
2019-01-29T15:50:46.812Z,96516.52
2019-01-29T15:53:20.043Z,96512.91
2019-01-29T15:55:52.485Z,96520.13
2019-01-29T15:58:25.474Z,96521.66
2019-01-29T16:00:57.711Z,96522.12
2019-01-29T16:03:29.361Z,96517.81
2019-01-29T16:06:02.692Z,96531.52
2019-01-29T16:08:35.792Z,96525.56
2019-01-29T16:11:08.053Z,96525.66
2019-01-29T16:13:41.891Z,96528.84
2019-01-29T16:16:13.897Z,96532.46
2019-01-29T16:18:46.100Z,96526.48
2019-01-29T16:21:17.848Z,96533.63
2019-01-29T16:23:51.932Z,96526.23
2019-01-29T16:26:24.043Z,96530.26
2019-01-29T16:28:56.946Z,96539.39
2019-01-29T16:31:29.937Z,96538.59
2019-01-29T16:34:02.753Z,96538.25
2019-01-29T16:36:35.859Z,96543.06
2019-01-29T16:39:11.638Z,96543.41
2019-01-29T16:41:43.235Z,96552.55
2019-01-29T16:44:16.468Z,96554.17
2019-01-29T16:46:48.064Z,96566.10
2019-01-29T16:49:19.994Z,96572.54
2019-01-29T16:51:53.332Z,96571.70
2019-01-29T16:54:24.760Z,96569.59
2019-01-29T16:56:59.490Z,96579.06
2019-01-29T16:59:31.166Z,96575.20
2019-01-29T17:02:02.862Z,96577.45
2019-01-29T17:04:34.421Z,96568.34
2019-01-29T17:07:08.192Z,96562.97
2019-01-29T17:09:40.236Z,96562.14
2019-01-29T17:12:17.075Z,96558.88
2019-01-29T17:14:50.092Z,96553.97
2019-01-29T17:17:24.005Z,96546.84
2019-01-29T17:19:56.709Z,96531.59
2019-01-29T17:22:28.901Z,96537.35
2019-01-29T17:25:04.231Z,96520.72
2019-01-29T17:27:40.363Z,96524.70
2019-01-29T17:30:20.449Z,96523.88
2019-01-29T17:32:52.536Z,96520.47
2019-01-29T17:35:25.454Z,96521.17
2019-01-29T17:37:57.015Z,96521.77
2019-01-29T17:40:28.688Z,96528.22
2019-01-29T17:43:00.287Z,96533.59
2019-01-29T17:45:36.567Z,96526.66
2019-01-29T17:48:08.730Z,96520.81
2019-01-29T17:50:42.010Z,96528.20
2019-01-29T17:53:13.641Z,96522.94
2019-01-29T17:55:48.096Z,96522.09
2019-01-29T17:58:22.012Z,96514.61
2019-01-29T18:00:57.649Z,96520.13
2019-01-29T18:03:29.451Z,96524.00
2019-01-29T18:06:01.470Z,96519.78
2019-01-29T18:08:36.039Z,96525.75
2019-01-29T18:11:08.904Z,96533.36
2019-01-29T18:13:40.982Z,96533.92
2019-01-29T18:16:14.559Z,96541.63
2019-01-29T18:18:47.766Z,96555.06
2019-01-29T18:21:20.671Z,96563.08
2019-01-29T18:23:53.683Z,96564.45
2019-01-29T18:26:26.221Z,96560.98
2019-01-29T18:28:59.301Z,96563.61
2019-01-29T18:31:30.903Z,96562.73
2019-01-29T18:34:03.136Z,96559.50
2019-01-29T18:36:34.660Z,96557.25
2019-01-29T18:39:12.416Z,96565.03
2019-01-29T18:41:46.642Z,96563.61
2019-01-29T18:44:22.498Z,96568.88
2019-01-29T18:46:55.741Z,96571.33
2019-01-29T18:49:28.964Z,96568.37
2019-01-29T18:52:02.388Z,96570.80
2019-01-29T18:54:34.581Z,96565.66
2019-01-29T18:57:08.941Z,96568.34
2019-01-29T18:59:41.981Z,96574.20
2019-01-29T19:02:14.001Z,96570.05
2019-01-29T19:04:46.870Z,96571.03
2019-01-29T19:07:18.420Z,96576.38
2019-01-29T19:09:51.271Z,96572.94
2019-01-29T19:12:22.961Z,96577.77
2019-01-29T19:14:58.316Z,96585.83
2019-01-29T19:17:30.396Z,96579.14
2019-01-29T19:20:02.753Z,96587.95
2019-01-29T19:22:36.923Z,96586.00
2019-01-29T19:25:11.500Z,96591.98
2019-01-29T19:27:44.333Z,96597.47
2019-01-29T19:30:26.487Z,96592.69
2019-01-29T19:32:58.802Z,96591.61
2019-01-29T19:35:30.492Z,96595.39
2019-01-29T19:38:02.462Z,96596.06
2019-01-29T19:40:36.282Z,96592.44
2019-01-29T19:43:07.969Z,96590.20
2019-01-29T19:45:39.975Z,96584.59
2019-01-29T19:48:11.661Z,96590.20
2019-01-29T19:50:43.859Z,96585.42
2019-01-29T19:53:18.179Z,96572.05
2019-01-29T19:55:51.082Z,96565.73
2019-01-29T19:58:32.097Z,96559.41
2019-01-29T20:00:59.487Z,96562.70
2019-01-29T20:03:32.950Z,96558.34
2019-01-29T20:06:05.899Z,96553.80
2019-01-29T20:08:39.133Z,96554.52
2019-01-29T20:11:11.324Z,96561.99
2019-01-29T20:13:45.635Z,96558.38
2019-01-29T20:16:19.691Z,96556.02
2019-01-29T20:18:54.220Z,96557.75
2019-01-29T20:21:25.820Z,96553.92
2019-01-29T20:23:58.614Z,96571.58
2019-01-29T20:26:32.503Z,96565.23
2019-01-29T20:29:04.731Z,96560.67
2019-01-29T20:31:36.417Z,96558.22
2019-01-29T20:34:08.705Z,96556.72
2019-01-29T20:36:40.336Z,96552.81
2019-01-29T20:39:12.488Z,96545.42
2019-01-29T20:41:45.311Z,96544.64
2019-01-29T20:44:17.390Z,96536.54
2019-01-29T20:46:49.037Z,96536.91
2019-01-29T20:49:23.499Z,96533.83
2019-01-29T20:51:55.387Z,96516.84
2019-01-29T20:54:29.668Z,96519.17
2019-01-29T20:57:01.335Z,96517.89
2019-01-29T20:59:32.958Z,96509.52
2019-01-29T21:02:05.135Z,96510.22
2019-01-29T21:04:36.751Z,96510.13
2019-01-29T21:07:08.892Z,96500.76
2019-01-29T21:09:40.411Z,96506.61
2019-01-29T21:12:13.674Z,96503.86
2019-01-29T21:14:45.284Z,96505.48
2019-01-29T21:17:18.211Z,96507.39
2019-01-29T21:19:52.220Z,96504.94
2019-01-29T21:22:25.902Z,96498.84
2019-01-29T21:24:57.447Z,96500.70
2019-01-29T21:27:31.737Z,96506.03
2019-01-29T21:30:03.280Z,96520.72
2019-01-29T21:32:35.038Z,96518.72
2019-01-29T21:35:06.859Z,96516.82
2019-01-29T21:37:39.773Z,96522.12
2019-01-29T21:40:13.083Z,96525.80
2019-01-29T21:42:46.022Z,96530.25
2019-01-29T21:45:19.052Z,96520.70
2019-01-29T21:47:50.591Z,96523.75
2019-01-29T21:50:24.646Z,96523.98
2019-01-29T21:52:56.067Z,96525.83
2019-01-29T21:55:29.961Z,96515.44
2019-01-29T21:58:02.798Z,96524.72
2019-01-29T22:00:41.165Z,96519.98
2019-01-29T22:03:14.541Z,96508.58
2019-01-29T22:05:46.549Z,96512.80
2019-01-29T22:08:18.458Z,96510.05
2019-01-29T22:10:52.803Z,96514.41
2019-01-29T22:13:24.335Z,96501.80
2019-01-29T22:15:57.319Z,96499.94
2019-01-29T22:18:30.759Z,96501.80
2019-01-29T22:21:03.289Z,96490.76
2019-01-29T22:23:39.018Z,96490.62
2019-01-29T22:26:12.215Z,96492.09
2019-01-29T22:28:58.193Z,96496.20
2019-01-29T22:31:29.675Z,96488.64
2019-01-29T22:34:01.133Z,96484.32
2019-01-29T22:36:34.251Z,96480.33
2019-01-29T22:39:09.300Z,96485.55
2019-01-29T22:41:40.980Z,96475.59
2019-01-29T22:44:12.611Z,96478.28
2019-01-29T22:46:44.573Z,96476.05
2019-01-29T22:49:18.311Z,96479.70
2019-01-29T22:51:49.894Z,96471.33
2019-01-29T22:54:33.234Z,96478.97
2019-01-29T22:57:07.179Z,96480.26
2019-01-29T22:59:38.659Z,96477.31
2019-01-29T23:02:13.166Z,96471.79
2019-01-29T23:04:49.685Z,96469.20
2019-01-29T23:07:37.652Z,96471.41
2019-01-29T23:10:27.204Z,96463.25
2019-01-29T23:12:59.432Z,96458.74
2019-01-29T23:15:31.895Z,96456.45
2019-01-29T23:18:05.694Z,96459.62
2019-01-29T23:20:39.296Z,96453.31
2019-01-29T23:23:13.440Z,96453.19
2019-01-29T23:25:46.562Z,96459.36
2019-01-29T23:28:19.554Z,96454.88
2019-01-29T23:30:51.115Z,96463.29
2019-01-29T23:33:22.795Z,96450.64
2019-01-29T23:35:54.811Z,96450.77
2019-01-29T23:38:32.408Z,96444.14
2019-01-29T23:41:07.502Z,96454.09
2019-01-29T23:43:40.486Z,96448.33
2019-01-29T23:46:13.465Z,96454.62
2019-01-29T23:48:45.425Z,96450.26
2019-01-29T23:51:17.313Z,96453.06
2019-01-29T23:53:49.293Z,96443.36
2019-01-29T23:56:24.083Z,96441.14
2019-01-29T23:59:02.261Z,96453.45
